Time;durP1;ratioP1;P1;durP2;ratioP2;P2;SDS_P1;SDS_P2;PMS_P1;PMS_P2;Temp;Humidity;BMP_temperature;BMP_pressure;BME280_temperature;BME280_humidity;BME280_pressure;Samples;Min_cycle;Max_cycle;Signal;HPM_P1;HPM_P2
2021/01/04 00:00:29;;;;;;;;;67.50;48.75;;;;;3.91;98.21;99523.91;5067910;28;8835;-61
2021/01/04 00:03:31;;;;;;;;;66.75;54.25;;;;;3.86;98.46;99530.31;5067723;28;8861;-60
2021/01/04 00:06:38;;;;;;;;;71.00;53.00;;;;;3.79;98.22;99526.13;5066160;28;8826;-61
2021/01/04 00:09:35;;;;;;;;;71.25;49.75;;;;;3.78;98.39;99524.41;5067672;28;8840;-61
2021/01/04 00:12:49;;;;;;;;;64.25;46.50;;;;;3.63;98.46;99529.34;5066637;28;8863;-61
2021/01/04 00:15:29;;;;;;;;;55.75;45.25;;;;;3.73;98.85;99528.09;5059376;28;9568;-61
2021/01/04 00:18:25;;;;;;;;;71.75;49.75;;;;;3.73;98.38;99532.53;5083327;28;8968;-61
2021/01/04 00:21:43;;;;;;;;;67.25;50.50;;;;;3.77;98.31;99528.88;5067886;28;8838;-61
2021/01/04 00:24:36;;;;;;;;;64.00;50.25;;;;;4.04;99.22;99526.09;5067615;28;8869;-61
2021/01/04 00:27:29;;;;;;;;;66.00;51.00;;;;;3.94;99.33;99528.22;5068096;28;8857;-61
2021/01/04 00:30:06;;;;;;;;;57.00;46.75;;;;;3.63;98.75;99536.44;5065944;28;8834;-61
2021/01/04 00:32:35;;;;;;;;;62.00;46.00;;;;;3.43;98.91;99540.69;5064291;28;8859;-61
2021/01/04 00:35:21;;;;;;;;;62.25;47.50;;;;;3.48;99.27;99537.88;5064928;28;8826;-61
2021/01/04 00:38:31;;;;;;;;;67.25;47.50;;;;;3.48;98.48;99533.41;5066467;28;8936;-60
2021/01/04 00:41:25;;;;;;;;;84.00;63.00;;;;;3.34;98.83;99540.13;5062833;28;8850;-61
2021/01/04 00:43:57;;;;;;;;;66.75;50.25;;;;;3.39;99.27;99540.81;5062368;28;8899;-60
2021/01/04 00:46:41;;;;;;;;;72.25;52.25;;;;;3.30;99.71;99545.53;5065739;28;8828;-61
2021/01/04 00:49:31;;;;;;;;;70.50;52.00;;;;;3.15;99.29;99546.06;5066290;28;8834;-60
2021/01/04 00:52:36;;;;;;;;;68.75;51.25;;;;;3.12;99.34;99532.03;5081416;28;8923;-60
2021/01/04 00:55:31;;;;;;;;;67.25;47.75;;;;;3.00;99.80;99551.84;5067025;28;8850;-61
2021/01/04 00:58:14;;;;;;;;;67.00;50.25;;;;;2.99;100.00;99542.19;5068664;28;8849;-61
2021/01/04 01:00:54;;;;;;;;;64.00;48.50;;;;;2.94;99.78;99536.16;5069210;28;8830;-61
2021/01/04 01:03:23;;;;;;;;;65.50;44.25;;;;;2.90;99.79;99539.81;5085833;28;8837;-61
2021/01/04 01:06:16;;;;;;;;;69.50;49.25;;;;;2.97;99.96;99538.69;5070696;28;8852;-61
2021/01/04 01:08:43;;;;;;;;;68.00;47.00;;;;;3.02;99.89;99523.50;5070648;28;8837;-60
2021/01/04 01:11:30;;;;;;;;;71.75;54.50;;;;;2.99;99.74;99536.88;5053217;28;8914;-60
2021/01/04 01:14:24;;;;;;;;;58.00;47.00;;;;;3.08;100.00;99533.91;5067421;28;8861;-60
2021/01/04 01:17:22;;;;;;;;;49.50;37.75;;;;;2.99;99.93;99544.84;5059340;28;8941;-61
2021/01/04 01:19:56;;;;;;;;;56.50;46.00;;;;;2.96;99.55;99542.28;5063061;28;8881;-61
2021/01/04 01:22:33;;;;;;;;;58.25;46.00;;;;;3.17;99.17;99549.53;5069110;28;8826;-62
2021/01/04 01:25:08;;;;;;;;;66.25;50.75;;;;;3.20;99.50;99559.16;5065197;28;8862;-61
2021/01/04 01:28:11;;;;;;;;;69.25;49.50;;;;;3.34;100.00;99546.28;5067403;28;8959;-61
2021/01/04 01:31:47;;;;;;;;;70.25;48.50;;;;;3.50;99.58;99549.28;5069246;28;8837;-61
2021/01/04 01:34:35;;;;;;;;;67.75;48.25;;;;;3.53;100.00;99565.13;5060122;28;8833;-61
2021/01/04 01:37:33;;;;;;;;;72.75;56.00;;;;;3.39;98.95;99554.09;5061723;28;8858;-61
2021/01/04 01:40:58;;;;;;;;;65.00;49.00;;;;;3.44;100.00;99557.47;5061743;28;8837;-61
2021/01/04 01:44:01;;;;;;;;;67.00;50.75;;;;;3.38;99.11;99557.69;5063595;28;8850;-61
2021/01/04 01:46:56;;;;;;;;;73.75;53.50;;;;;3.34;99.81;99554.25;5067196;28;8828;-61
2021/01/04 01:49:55;;;;;;;;;65.25;50.00;;;;;3.57;99.32;99561.41;5063156;28;8849;-61
2021/01/04 01:52:36;;;;;;;;;71.75;50.25;;;;;3.46;99.83;99563.59;5064387;28;8830;-61
2021/01/04 01:55:33;;;;;;;;;57.75;43.50;;;;;3.39;99.30;99564.72;5070389;28;8832;-61
2021/01/04 01:58:08;;;;;;;;;58.75;49.25;;;;;3.65;99.36;99556.69;5085626;28;8899;-61
2021/01/04 02:01:07;;;;;;;;;71.00;50.75;;;;;3.46;99.49;99561.78;5069447;28;8853;-61
2021/01/04 02:03:47;;;;;;;;;73.00;51.00;;;;;3.54;99.57;99555.38;5070450;28;8837;-61
2021/01/04 02:06:34;;;;;;;;;82.75;57.25;;;;;3.47;99.17;99549.38;5062800;28;8821;-61
2021/01/04 02:09:17;;;;;;;;;65.75;50.50;;;;;3.69;98.92;99541.56;5067973;28;8877;-61
2021/01/04 02:12:16;;;;;;;;;69.75;51.00;;;;;3.58;98.58;99541.94;5067861;28;8841;-61
2021/01/04 02:15:19;;;;;;;;;68.25;52.00;;;;;3.48;99.32;99544.03;5061765;28;8835;-60
2021/01/04 02:18:10;;;;;;;;;71.25;54.00;;;;;3.85;99.18;99537.41;5069035;28;8868;-60
2021/01/04 02:21:18;;;;;;;;;72.00;55.75;;;;;3.87;99.65;99540.88;5059813;28;8856;-60
2021/01/04 02:24:07;;;;;;;;;70.25;51.25;;;;;3.71;98.98;99540.56;5054388;28;8918;-61
2021/01/04 02:26:35;;;;;;;;;70.50;52.00;;;;;4.16;99.58;99531.84;5064275;28;8951;-61
2021/01/04 02:29:13;;;;;;;;;74.25;54.25;;;;;3.80;99.07;99528.75;5066548;28;8944;-60
2021/01/04 02:31:47;;;;;;;;;67.00;52.50;;;;;3.85;99.40;99520.63;5062583;28;8863;-60
2021/01/04 02:34:19;;;;;;;;;69.25;52.50;;;;;3.72;99.57;99521.06;5065805;28;8853;-59
2021/01/04 02:36:52;;;;;;;;;79.00;60.75;;;;;3.84;99.80;99521.53;5065091;28;8856;-61
2021/01/04 02:39:33;;;;;;;;;79.00;57.50;;;;;3.83;99.15;99520.66;5067496;28;9016;-60
2021/01/04 02:42:11;;;;;;;;;84.50;61.50;;;;;3.71;98.92;99524.66;5067267;28;8829;-60
2021/01/04 02:44:39;;;;;;;;;71.75;56.50;;;;;3.83;99.28;99517.16;5065705;28;8883;-60
2021/01/04 02:47:40;;;;;;;;;69.50;51.50;;;;;3.83;98.82;99517.16;5083736;28;8857;-61
2021/01/04 02:50:37;;;;;;;;;70.75;50.50;;;;;3.81;99.70;99522.50;5067159;28;8826;-60
2021/01/04 02:53:40;;;;;;;;;39.75;38.75;;;;;3.77;99.41;99517.38;5065159;28;8830;-60
2021/01/04 02:56:26;;;;;;;;;61.75;42.75;;;;;3.78;99.30;99521.75;5064384;28;8945;-61
2021/01/04 02:59:15;;;;;;;;;60.75;47.00;;;;;3.91;99.18;99520.38;5062516;28;8844;-60
2021/01/04 03:02:09;;;;;;;;;68.50;51.75;;;;;4.00;99.38;99530.66;5062509;28;8852;-59
2021/01/04 03:04:38;;;;;;;;;74.00;54.00;;;;;3.98;99.12;99527.22;5066115;28;8853;-60
2021/01/04 03:07:15;;;;;;;;;52.50;36.25;;;;;3.97;98.90;99538.75;5065555;28;8860;-60
2021/01/04 03:09:50;;;;;;;;;73.75;50.50;;;;;4.00;98.60;99541.28;5058517;28;8845;-59
2021/01/04 03:12:32;;;;;;;;;64.50;47.25;;;;;4.07;98.83;99536.63;5064993;28;8960;-61
2021/01/04 03:15:29;;;;;;;;;58.50;43.50;;;;;4.19;98.29;99536.16;5061089;28;8949;-60
2021/01/04 03:18:18;;;;;;;;;52.75;43.50;;;;;4.15;98.91;99532.72;5068229;28;8850;-60
2021/01/04 03:20:46;;;;;;;;;67.75;51.00;;;;;4.24;98.51;99533.31;5068118;28;8943;-60
2021/01/04 03:23:13;;;;;;;;;70.25;50.00;;;;;4.11;98.83;99539.09;5079567;28;8829;-61
2021/01/04 03:25:53;;;;;;;;;61.75;45.50;;;;;4.30;98.12;99531.28;5066757;28;8837;-59
2021/01/04 03:28:27;;;;;;;;;70.00;51.00;;;;;4.15;98.78;99529.22;5066948;28;8825;-60
2021/01/04 03:30:54;;;;;;;;;73.00;56.00;;;;;4.15;98.74;99522.09;5061782;28;8814;-60
2021/01/04 03:33:21;;;;;;;;;97.75;73.50;;;;;4.06;99.02;99522.47;5069146;28;8817;-60
2021/01/04 03:35:50;;;;;;;;;56.25;46.50;;;;;4.16;98.94;99520.31;5066464;28;8861;-60
2021/01/04 03:38:19;;;;;;;;;75.75;55.75;;;;;4.25;98.53;99532.41;5067539;28;8862;-60
2021/01/04 03:40:46;;;;;;;;;85.25;61.00;;;;;4.20;98.88;99523.75;5065275;28;9722;-60
2021/01/04 03:43:13;;;;;;;;;73.25;51.25;;;;;4.14;98.76;99519.53;5067236;28;8857;-60
2021/01/04 03:45:40;;;;;;;;;43.25;35.50;;;;;4.12;99.07;99508.94;5067571;28;9579;-61
2021/01/04 03:48:08;;;;;;;;;54.50;43.50;;;;;4.10;98.71;99507.28;5067928;28;9978;-61
2021/01/04 03:50:35;;;;;;;;;59.00;47.25;;;;;4.18;98.77;99519.31;5067502;28;8964;-60
2021/01/04 03:53:03;;;;;;;;;72.25;56.00;;;;;4.12;98.72;99519.56;5084368;28;8846;-60
2021/01/04 03:55:30;;;;;;;;;80.50;58.00;;;;;4.13;99.24;99518.66;5068180;28;8837;-60
2021/01/04 03:57:57;;;;;;;;;50.00;36.50;;;;;4.15;99.38;99537.19;5069150;28;8857;-61
2021/01/04 04:00:25;;;;;;;;;59.25;40.00;;;;;4.08;98.84;99538.34;5065891;28;9564;-61
2021/01/04 04:02:54;;;;;;;;;72.00;49.75;;;;;4.24;99.38;99528.88;5067883;28;8915;-60
2021/01/04 04:05:21;;;;;;;;;86.25;62.00;;;;;4.19;99.13;99538.81;5068154;28;8833;-61
2021/01/04 04:07:48;;;;;;;;;60.50;50.25;;;;;4.23;98.55;99536.91;5067554;28;8850;-61
2021/01/04 04:10:19;;;;;;;;;50.25;43.00;;;;;4.24;98.79;99533.31;5067562;28;8864;-60
2021/01/04 04:12:47;;;;;;;;;113.75;84.50;;;;;4.24;98.98;99533.31;5067898;28;8868;-59
2021/01/04 04:15:18;;;;;;;;;90.50;68.00;;;;;4.23;99.30;99520.97;5067014;28;8848;-61
2021/01/04 04:17:48;;;;;;;;;79.25;59.00;;;;;4.12;98.69;99516.91;5067853;28;8903;-60
2021/01/04 04:20:23;;;;;;;;;67.25;49.00;;;;;4.18;99.06;99529.97;5067995;28;8842;-61
2021/01/04 04:22:52;;;;;;;;;81.00;60.50;;;;;4.29;99.33;99526.03;5069155;28;8941;-60
2021/01/04 04:25:23;;;;;;;;;40.75;33.75;;;;;4.36;98.45;99523.06;5067822;28;8833;-60
2021/01/04 04:27:54;;;;;;;;;71.75;54.25;;;;;4.26;98.96;99521.69;5071497;28;8861;-60
2021/01/04 04:30:24;;;;;;;;;88.75;60.25;;;;;4.28;98.41;99517.19;5071755;28;8814;-60
2021/01/04 04:32:57;;;;;;;;;60.75;46.25;;;;;4.28;98.06;99513.69;5072892;28;8860;-61
2021/01/04 04:35:26;;;;;;;;;48.25;39.75;;;;;4.16;99.22;99515.88;5073270;28;8857;-61
2021/01/04 04:37:54;;;;;;;;;62.75;44.00;;;;;4.24;98.25;99528.00;5071738;28;8845;-60
2021/01/04 04:40:33;;;;;;;;;48.75;39.25;;;;;4.13;99.43;99526.63;5070818;28;9683;-60
2021/01/04 04:43:14;;;;;;;;;59.25;46.00;;;;;4.12;99.05;99519.56;5071083;28;8850;-59
2021/01/04 04:45:43;;;;;;;;;85.25;63.50;;;;;4.12;99.45;99530.19;5070466;28;8864;-59
2021/01/04 04:48:48;;;;;;;;;69.50;52.25;;;;;4.25;99.12;99525.28;5072089;28;8850;-60
2021/01/04 04:51:35;;;;;;;;;72.25;57.50;;;;;4.33;98.27;99517.03;5072765;28;8817;-60
2021/01/04 04:54:50;;;;;;;;;44.75;36.75;;;;;4.22;99.30;99524.56;5071247;28;8875;-60
2021/01/04 04:57:41;;;;;;;;;56.50;44.50;;;;;4.34;98.72;99524.91;5073086;28;8868;-61
2021/01/04 05:00:32;;;;;;;;;58.50;43.25;;;;;4.33;98.85;99522.34;5071161;28;8957;-60
2021/01/04 05:03:30;;;;;;;;;52.75;43.00;;;;;4.27;98.36;99511.97;5071679;28;8825;-60
2021/01/04 05:06:23;;;;;;;;;59.25;44.25;;;;;4.39;98.87;99507.00;5073178;28;8813;-61
2021/01/04 05:09:21;;;;;;;;;53.75;43.50;;;;;4.33;99.19;99511.72;5072032;28;8869;-59
2021/01/04 05:12:08;;;;;;;;;67.25;50.75;;;;;4.32;98.72;99510.00;5070860;28;8872;-61
2021/01/04 05:14:41;;;;;;;;;63.00;45.50;;;;;4.32;98.45;99510.00;5071948;28;8879;-60
2021/01/04 05:17:28;;;;;;;;;70.50;53.50;;;;;4.37;99.10;99514.19;5070630;28;8869;-60
2021/01/04 05:20:46;;;;;;;;;71.25;51.25;;;;;4.32;99.33;99531.25;5072801;28;9674;-59
2021/01/04 05:23:38;;;;;;;;;46.25;37.00;;;;;4.26;99.21;99534.13;5052055;28;9645;-59
2021/01/04 05:26:48;;;;;;;;;61.00;46.00;;;;;4.32;98.94;99533.91;5072051;28;8871;-60
2021/01/04 05:29:49;;;;;;;;;62.25;46.50;;;;;4.28;98.77;99529.63;5070186;28;8896;-60
2021/01/04 05:32:53;;;;;;;;;48.00;42.25;;;;;4.23;99.18;99513.84;5071764;28;8842;-61
2021/01/04 05:35:20;;;;;;;;;60.50;45.75;;;;;4.26;98.73;99495.13;5071768;28;8856;-60
2021/01/04 05:38:00;;;;;;;;;63.50;46.50;;;;;4.20;99.54;99502.47;5070648;28;8841;-60
2021/01/04 05:41:10;;;;;;;;;69.50;51.75;;;;;4.21;100.00;99502.41;5071637;28;8861;-61
2021/01/04 05:44:26;;;;;;;;;60.25;43.25;;;;;4.17;99.44;99501.66;5049856;28;8828;-60
2021/01/04 05:47:21;;;;;;;;;62.25;51.75;;;;;4.29;100.00;99488.81;5050347;28;8955;-60
2021/01/04 05:50:23;;;;;;;;;78.25;55.50;;;;;4.53;99.99;99498.50;5051345;28;8864;-60
2021/01/04 05:52:55;;;;;;;;;59.75;49.00;;;;;4.55;99.65;99496.63;5051646;28;8824;-60
2021/01/04 05:55:23;;;;;;;;;63.75;52.00;;;;;4.56;99.10;99501.03;5066654;28;8898;-61
2021/01/04 05:57:54;;;;;;;;;67.00;46.25;;;;;4.48;99.12;99511.13;5051659;28;8864;-59
2021/01/04 06:00:29;;;;;;;;;55.75;46.00;;;;;4.25;99.61;99519.97;5050859;28;8906;-60
2021/01/04 06:03:14;;;;;;;;;49.25;41.25;;;;;4.23;99.77;99526.28;5051400;28;8848;-61
2021/01/04 06:05:41;;;;;;;;;65.75;46.75;;;;;4.42;99.07;99521.97;5050208;28;8839;-60
2021/01/04 06:08:25;;;;;;;;;56.25;46.50;;;;;4.22;99.49;99514.78;5050798;28;8949;-60
2021/01/04 06:11:14;;;;;;;;;70.25;51.00;;;;;4.24;98.86;99517.34;5051871;28;8824;-61
2021/01/04 06:13:45;;;;;;;;;61.00;46.25;;;;;4.28;99.68;99514.53;5066096;28;8942;-60
2021/01/04 06:16:18;;;;;;;;;59.25;47.25;;;;;4.36;98.86;99511.59;5049892;28;8894;-61
2021/01/04 06:18:50;;;;;;;;;70.75;54.00;;;;;4.29;99.73;99504.75;5049866;28;8844;-61
2021/01/04 06:21:35;;;;;;;;;74.75;55.25;;;;;4.34;99.41;99513.44;5066573;28;8832;-61
2021/01/04 06:24:04;;;;;;;;;91.00;65.25;;;;;4.32;98.90;99520.63;5050551;28;9669;-60
2021/01/04 06:26:34;;;;;;;;;71.00;53.00;;;;;4.24;99.54;99517.34;5049499;28;8852;-60
2021/01/04 06:29:08;;;;;;;;;75.25;53.75;;;;;4.29;99.84;99524.25;5065540;28;8894;-60
2021/01/04 06:31:45;;;;;;;;;56.00;47.75;;;;;4.28;99.26;99538.44;5050400;28;8836;-59
2021/01/04 06:34:31;;;;;;;;;68.50;48.25;;;;;4.29;99.19;99541.97;5066098;28;8836;-62
2021/01/04 06:37:11;;;;;;;;;69.25;50.75;;;;;4.37;99.27;99539.88;5050401;28;8875;-61
2021/01/04 06:39:40;;;;;;;;;65.25;50.25;;;;;4.27;99.94;99542.06;5049547;28;8854;-61
2021/01/04 06:42:22;;;;;;;;;66.50;49.75;;;;;4.28;99.93;99553.53;5069029;28;8936;-61
2021/01/04 06:45:09;;;;;;;;;74.50;50.50;;;;;4.30;100.00;99563.19;5068726;28;8838;-60
2021/01/04 06:47:57;;;;;;;;;82.75;58.75;;;;;4.46;98.88;99566.13;5070162;28;8877;-60
2021/01/04 06:51:01;;;;;;;;;73.00;51.25;;;;;4.32;99.80;99564.00;5068834;28;8964;-60
2021/01/04 06:54:02;;;;;;;;;72.00;51.00;;;;;4.21;99.91;99560.88;5070230;28;9993;-62
2021/01/04 06:56:43;;;;;;;;;71.75;53.00;;;;;4.31;99.78;99551.63;5070108;28;8963;-60
2021/01/04 06:59:31;;;;;;;;;68.00;49.75;;;;;4.46;99.44;99555.50;5068621;28;8980;-58
2021/01/04 07:02:17;;;;;;;;;67.75;50.50;;;;;4.33;99.36;99559.53;5068920;28;8853;-60
2021/01/04 07:05:16;;;;;;;;;66.50;47.75;;;;;4.27;99.37;99559.78;5070113;28;8849;-60
2021/01/04 07:08:21;;;;;;;;;75.25;53.25;;;;;4.24;100.00;99567.84;5070095;28;8829;-63
2021/01/04 07:11:16;;;;;;;;;66.00;52.00;;;;;4.30;99.41;99570.31;5068951;28;8837;-59
2021/01/04 07:14:25;;;;;;;;;72.75;52.00;;;;;4.26;99.74;99569.53;5068125;28;8861;-59
2021/01/04 07:17:30;;;;;;;;;65.50;48.00;;;;;4.28;99.44;99569.47;5068733;28;8976;-59
2021/01/04 07:20:29;;;;;;;;;74.00;58.00;;;;;4.37;99.28;99566.47;5069155;28;8829;-61
2021/01/04 07:23:34;;;;;;;;;73.00;49.75;;;;;4.43;99.44;99555.63;5055410;28;8926;-60
2021/01/04 07:26:41;;;;;;;;;57.75;46.50;;;;;4.42;99.96;99558.31;5069953;28;8865;-59
2021/01/04 07:29:20;;;;;;;;;68.25;51.25;;;;;4.31;99.75;99567.56;5068235;28;8883;-59
2021/01/04 07:32:08;;;;;;;;;69.50;49.50;;;;;4.31;99.15;99562.25;5070007;28;8825;-60
2021/01/04 07:35:02;;;;;;;;;70.75;50.00;;;;;4.46;99.88;99568.78;5070011;28;8830;-60
2021/01/04 07:37:49;;;;;;;;;74.25;54.25;;;;;4.45;99.89;99590.97;5069399;28;8829;-59
2021/01/04 07:41:18;;;;;;;;;66.75;50.00;;;;;4.58;99.70;99581.63;5069786;28;8887;-61
2021/01/04 07:44:12;;;;;;;;;58.00;44.75;;;;;4.38;99.82;99581.50;5046212;28;8880;-60
2021/01/04 07:47:03;;;;;;;;;67.25;47.00;;;;;4.46;99.74;99582.06;5049431;28;8872;-60
2021/01/04 07:50:33;;;;;;;;;75.75;54.50;;;;;4.97;98.88;99578.28;5049432;28;8868;-60
2021/01/04 07:53:29;;;;;;;;;78.25;55.00;;;;;4.51;98.49;99580.09;5048614;28;8966;-61
2021/01/04 07:56:41;;;;;;;;;72.50;55.00;;;;;4.71;98.54;99587.28;5048967;28;8852;-60
2021/01/04 07:59:39;;;;;;;;;70.75;52.50;;;;;4.64;98.99;99590.28;5048093;28;8887;-60
2021/01/04 08:02:47;;;;;;;;;78.25;56.00;;;;;4.70;97.98;99595.34;5053714;28;8836;-59
2021/01/04 08:05:33;;;;;;;;;81.50;55.00;;;;;4.67;98.11;99592.81;5051255;28;8885;-61
2021/01/04 08:08:12;;;;;;;;;67.75;48.50;;;;;4.65;98.48;99592.84;5053695;28;9678;-59
2021/01/04 08:10:44;;;;;;;;;71.25;54.75;;;;;4.78;98.56;99598.56;5053396;28;8860;-59
2021/01/04 08:13:45;;;;;;;;;67.75;52.25;;;;;4.76;97.69;99595.97;5053249;28;8974;-60
2021/01/04 08:16:31;;;;;;;;;68.25;47.50;;;;;4.73;98.64;99595.22;5053413;28;8859;-61
2021/01/04 08:19:05;;;;;;;;;64.25;47.25;;;;;4.84;97.99;99593.88;5052813;28;8855;-60
2021/01/04 08:21:44;;;;;;;;;69.00;51.00;;;;;4.81;97.54;99593.13;5051959;28;8836;-60
2021/01/04 08:24:26;;;;;;;;;67.50;48.50;;;;;4.88;97.93;99588.44;5053540;28;8832;-59
2021/01/04 08:27:25;;;;;;;;;66.75;50.50;;;;;4.91;98.58;99589.19;5052802;28;8852;-61
2021/01/04 08:30:07;;;;;;;;;71.00;50.25;;;;;4.93;98.14;99591.78;5053413;28;8880;-60
2021/01/04 08:32:56;;;;;;;;;68.25;52.25;;;;;5.04;97.14;99585.09;5052093;28;8863;-59
2021/01/04 08:35:41;;;;;;;;;71.00;51.50;;;;;5.07;97.34;99589.41;5051612;28;8856;-59
2021/01/04 08:38:20;;;;;;;;;74.25;56.25;;;;;5.16;97.55;99589.06;5051793;28;8955;-61
2021/01/04 08:41:31;;;;;;;;;81.75;61.50;;;;;5.08;97.20;99588.47;5053036;28;8856;-59
2021/01/04 08:43:58;;;;;;;;;78.50;58.75;;;;;5.18;96.81;99596.97;5051467;28;8856;-61
2021/01/04 08:46:32;;;;;;;;;87.00;60.75;;;;;5.15;96.30;99597.09;5051729;28;8844;-61
2021/01/04 08:49:15;;;;;;;;;93.00;65.00;;;;;5.30;95.36;99606.25;5051632;28;8874;-61
2021/01/04 08:51:45;;;;;;;;;75.25;54.75;;;;;5.16;95.88;99598.81;5052558;28;8966;-61
2021/01/04 08:54:30;;;;;;;;;72.25;56.00;;;;;5.40;95.89;99600.50;5052915;28;8955;-59
2021/01/04 08:57:20;;;;;;;;;67.25;50.25;;;;;5.15;95.30;99587.31;5052002;28;8836;-60
2021/01/04 09:00:28;;;;;;;;;72.75;51.00;;;;;5.27;96.02;99592.13;5052039;28;8870;-59
2021/01/04 09:02:56;;;;;;;;;63.50;47.75;;;;;5.44;95.23;99578.09;5051737;28;8824;-60
2021/01/04 09:05:35;;;;;;;;;66.75;49.25;;;;;5.30;95.16;99574.31;5052676;28;8840;-61
2021/01/04 09:08:05;;;;;;;;;63.25;49.25;;;;;5.32;95.58;99583.97;5051432;28;8836;-59
2021/01/04 09:10:48;;;;;;;;;66.50;46.00;;;;;5.07;95.59;99584.97;5050920;28;8852;-61
2021/01/04 09:13:32;;;;;;;;;68.00;46.75;;;;;5.17;95.50;99589.94;5049735;28;8902;-60
2021/01/04 09:16:30;;;;;;;;;63.25;48.50;;;;;5.32;95.15;99583.97;5051348;28;8812;-60
2021/01/04 09:19:18;;;;;;;;;63.00;47.25;;;;;5.11;95.12;99580.41;5046534;28;8864;-60
2021/01/04 09:21:45;;;;;;;;;59.75;45.00;;;;;5.13;95.32;99585.63;5051002;28;8843;-61
2021/01/04 09:24:24;;;;;;;;;62.00;46.50;;;;;5.36;94.66;99580.22;5051049;28;8848;-62
2021/01/04 09:27:00;;;;;;;;;47.67;42.00;;;;;5.42;94.74;99587.94;5052650;28;9683;-61
2021/01/04 09:29:38;;;;;;;;;64.00;49.25;;;;;5.26;94.19;99590.38;5050591;28;8848;-61
2021/01/04 09:32:14;;;;;;;;;62.67;45.33;;;;;5.35;94.26;99582.97;5051726;28;8840;-60
2021/01/04 09:34:41;;;;;;;;;66.00;45.00;;;;;5.38;93.40;99578.38;5051388;28;8943;-60
2021/01/04 09:37:23;;;;;;;;;72.75;46.50;;;;;5.19;94.36;99577.44;5050948;28;8881;-59
2021/01/04 09:39:59;;;;;;;;;63.00;49.00;;;;;5.21;94.41;99578.22;5033847;28;8871;-61
2021/01/04 09:42:29;;;;;;;;;51.33;40.33;;;;;5.21;95.20;99576.44;5062349;28;8841;-62
2021/01/04 09:45:19;;;;;;;;;65.00;45.67;;;;;5.17;94.65;99571.28;5070761;28;9665;-59
2021/01/04 09:48:02;;;;;;;;;56.00;43.67;;;;;5.31;94.44;99565.38;5070921;28;8830;-59
2021/01/04 09:50:58;;;;;;;;;56.67;45.00;;;;;5.10;94.12;99577.78;5070492;28;8865;-59
2021/01/04 09:53:34;;;;;;;;;46.33;33.33;;;;;5.20;94.63;99568.50;5070575;28;8845;-62
2021/01/04 09:56:12;;;;;;;;;54.33;41.67;;;;;5.40;92.90;99568.53;5071788;28;8952;-60
2021/01/04 09:58:40;;;;;;;;;51.00;39.33;;;;;5.56;92.91;99565.22;5070324;28;8940;-62
2021/01/04 10:01:15;;;;;;;;;41.00;34.00;;;;;5.47;93.34;99564.66;5071326;28;8930;-61
2021/01/04 10:04:02;;;;;;;;;45.67;32.00;;;;;5.50;93.52;99561.91;5070329;28;8971;-60
2021/01/04 10:06:35;;;;;;;;;67.75;45.75;;;;;5.96;94.17;99552.84;5071637;28;8930;-59
2021/01/04 10:09:08;;;;;;;;;54.00;40.00;;;;;5.63;92.55;99542.69;5071752;28;8858;-59
2021/01/04 10:11:35;;;;;;;;;48.67;41.33;;;;;5.71;93.16;99537.91;5069853;28;8837;-59
2021/01/04 10:14:10;;;;;;;;;44.67;37.33;;;;;5.81;92.87;99541.88;5070889;28;8943;-59
2021/01/04 10:16:43;;;;;;;;;50.67;38.33;;;;;6.03;92.17;99543.63;5070031;28;8826;-59
2021/01/04 10:19:44;;;;;;;;;47.33;41.00;;;;;5.67;92.55;99542.50;5069532;28;8826;-60
2021/01/04 10:22:20;;;;;;;;;45.00;35.33;;;;;5.92;92.69;99536.97;5066955;28;8944;-60
2021/01/04 10:24:50;;;;;;;;;41.33;37.00;;;;;5.72;91.44;99523.66;5068633;28;8922;-64
2021/01/04 10:27:22;;;;;;;;;57.00;35.67;;;;;5.77;91.36;99521.66;5070484;28;8825;-62
2021/01/04 10:30:00;;;;;;;;;41.67;37.00;;;;;5.59;91.08;99522.47;5069740;28;8845;-63
2021/01/04 10:32:35;;;;;;;;;56.33;41.33;;;;;5.48;92.63;99510.50;5069694;28;8837;-62
2021/01/04 10:35:04;;;;;;;;;38.33;29.00;;;;;5.69;92.66;99505.16;5071027;28;8825;-62
2021/01/04 10:37:53;;;;;;;;;52.00;41.33;;;;;5.94;91.87;99499.59;5069723;28;8869;-60
2021/01/04 10:40:23;;;;;;;;;42.33;33.67;;;;;5.68;91.32;99495.41;5069439;28;8860;-58
2021/01/04 10:43:03;;;;;;;;;58.00;40.67;;;;;5.71;92.01;99495.28;5069988;28;9890;-58
2021/01/04 10:45:42;;;;;;;;;47.67;34.00;;;;;5.64;92.99;99484.06;5069218;28;8875;-59
2021/01/04 10:48:19;;;;;;;;;69.67;45.00;;;;;5.83;92.43;99483.22;5069741;28;8857;-58
2021/01/04 10:50:49;;;;;;;;;53.33;37.00;;;;;5.68;92.39;99471.44;5068916;28;8869;-61
2021/01/04 10:53:34;;;;;;;;;53.33;41.33;;;;;5.77;92.07;99471.06;5069282;28;8929;-59
2021/01/04 10:56:16;;;;;;;;;45.67;34.33;;;;;5.99;91.27;99470.09;5069494;28;8826;-61
2021/01/04 10:59:10;;;;;;;;;62.00;49.67;;;;;6.33;91.24;99470.22;5070591;28;8873;-61
2021/01/04 11:01:42;;;;;;;;;46.67;40.33;;;;;6.34;91.14;99469.28;5069001;28;8916;-61
2021/01/04 11:04:16;;;;;;;;;49.33;39.67;;;;;6.10;90.77;99467.78;5069774;28;8836;-61
2021/01/04 11:06:48;;;;;;;;;63.33;47.00;;;;;6.28;91.07;99464.25;5069369;28;8864;-60
2021/01/04 11:09:21;;;;;;;;;88.25;65.00;;;;;6.49;90.00;99461.50;5052385;28;8837;-60
2021/01/04 11:12:03;;;;;;;;;37.00;34.67;;;;;6.07;92.09;99459.94;5068652;28;8853;-60
2021/01/04 11:14:31;;;;;;;;;38.00;37.33;;;;;6.07;91.91;99443.94;5069324;28;8948;-61
2021/01/04 11:17:37;;;;;;;;;67.67;45.67;;;;;6.08;91.95;99443.88;5068943;28;8821;-60
2021/01/04 11:20:16;;;;;;;;;71.33;51.33;;;;;6.02;91.33;99449.47;5070224;28;8832;-60
2021/01/04 11:22:44;;;;;;;;;57.67;46.33;;;;;5.90;92.36;99442.91;5069227;28;8841;-61
2021/01/04 11:25:14;;;;;;;;;446.00;322.25;;;;;5.89;92.88;99445.63;5068787;28;9265;-60
2021/01/04 11:27:40;;;;;;;;;623.25;449.75;;;;;6.02;91.75;99440.63;5068378;28;8857;-61
2021/01/04 11:30:08;;;;;;;;;300.00;244.00;;;;;6.22;91.75;99437.91;5069752;28;8849;-61
2021/01/04 11:32:35;;;;;;;;;89.50;64.00;;;;;6.24;91.73;99425.38;5069856;28;8846;-61
2021/01/04 11:35:02;;;;;;;;;85.75;60.75;;;;;6.22;90.93;99426.38;5068585;28;8837;-61
2021/01/04 11:37:30;;;;;;;;;78.25;55.25;;;;;6.39;91.29;99426.41;5068906;28;9638;-60
2021/01/04 11:39:57;;;;;;;;;67.00;51.67;;;;;6.40;90.42;99408.59;5068705;28;8841;-60
2021/01/04 11:42:24;;;;;;;;;67.33;49.00;;;;;6.22;90.84;99419.25;5069413;28;8911;-61
2021/01/04 11:44:51;;;;;;;;;62.67;46.67;;;;;6.17;91.41;99418.59;5068865;28;8849;-60
2021/01/04 11:47:19;;;;;;;;;85.50;63.50;;;;;6.28;91.76;99412.75;5069583;28;8830;-60
2021/01/04 11:49:47;;;;;;;;;73.50;56.50;;;;;6.50;90.59;99409.88;5067940;28;8854;-60
2021/01/04 11:52:14;;;;;;;;;68.67;52.00;;;;;6.51;90.27;99406.28;5068337;28;9576;-61
2021/01/04 11:54:43;;;;;;;;;52.33;42.33;;;;;6.75;90.39;99398.84;5068413;28;8873;-61
2021/01/04 11:57:11;;;;;;;;;56.00;44.00;;;;;6.53;90.29;99391.06;5067823;28;8861;-60
2021/01/04 11:59:38;;;;;;;;;63.00;47.33;;;;;6.59;89.44;99393.44;5068435;28;8923;-61
2021/01/04 12:02:06;;;;;;;;;68.67;49.00;;;;;6.69;89.96;99388.47;5067627;28;8956;-61
2021/01/04 12:04:34;;;;;;;;;44.33;41.67;;;;;6.52;89.41;99381.34;5068936;28;8821;-61
2021/01/04 12:07:01;;;;;;;;;68.67;49.00;;;;;6.62;89.36;99376.41;5069133;28;8942;-61
2021/01/04 12:09:28;;;;;;;;;58.33;45.67;;;;;6.48;90.32;99372.63;5068286;28;8839;-61
2021/01/04 12:11:55;;;;;;;;;62.75;49.00;;;;;6.52;90.97;99374.19;5068012;28;8857;-62
2021/01/04 12:14:22;;;;;;;;;64.75;48.75;;;;;6.39;91.66;99383.75;5068712;28;8877;-60
2021/01/04 12:16:49;;;;;;;;;64.67;48.00;;;;;6.40;91.15;99379.28;5069069;28;8960;-61
2021/01/04 12:19:16;;;;;;;;;66.00;51.75;;;;;6.42;91.55;99380.06;5068484;28;8833;-60
2021/01/04 12:21:43;;;;;;;;;59.00;46.50;;;;;6.29;91.89;99377.13;5051599;28;8833;-61
2021/01/04 12:24:10;;;;;;;;;59.25;48.25;;;;;6.15;91.60;99368.00;5067878;28;8872;-60
2021/01/04 12:26:37;;;;;;;;;69.75;50.00;;;;;6.17;92.08;99369.75;5051123;28;8864;-62
2021/01/04 12:29:04;;;;;;;;;67.50;49.00;;;;;6.31;91.79;99373.44;5069292;28;8833;-60
2021/01/04 12:31:37;;;;;;;;;59.67;44.33;;;;;6.22;91.58;99371.25;5067674;28;8877;-61
2021/01/04 12:34:04;;;;;;;;;54.67;45.67;;;;;6.36;91.78;99360.75;5068727;28;8984;-60
2021/01/04 12:36:32;;;;;;;;;62.33;44.00;;;;;6.37;90.46;99378.50;5069056;28;8849;-62
2021/01/04 12:38:58;;;;;;;;;63.67;42.00;;;;;6.64;90.83;99378.06;5069580;28;8833;-60
2021/01/04 12:41:25;;;;;;;;;53.67;40.00;;;;;6.42;90.38;99374.72;5068815;28;8956;-61
2021/01/04 12:43:53;;;;;;;;;57.00;41.00;;;;;6.50;90.76;99373.44;5068118;28;8841;-61